Gdf Suez North Sea — HPSQ — position and weather

sailwx.info

Track history (hours):
 
Tides and Currents Weather Stations Pressure Air Temp Water Temp Dewpoint Dewpoint Depression Visibility Wind Speed Wind Dir Waves Ship Positions

Gdf Suez North Sea

Last reported at 2016-Sep-30 14:31 UTC. Time now 2016-Sep-30 15:17 UTC.
Position N 49°19' W 123°06'.

Length 190 m; draft 6.9 m.

Type: Cargo ship. MMSI: 373341000.

Date/timePositionNaut miles runAvg speedWind from/ knotsBaromVisibWave heightAir tempDewpointWater temp
2016-Sep-30 14:31N 49°19' W 123°06'0 0.0
2016-Sep-30 13:31N 49°19' W 123°06'0 0.0
2016-Sep-30 10:31N 49°19' W 123°06'0 0.0
2016-Sep-30 08:31N 49°19' W 123°06'0 0.0
2016-Sep-30 06:31N 49°19' W 123°06'0 0.0
2016-Sep-30 03:31N 49°19' W 123°06'0 0.0
2016-Sep-30 02:31N 49°19' W 123°06'0 0.0
2016-Sep-29 23:31N 49°19' W 123°06'0 0.0
2016-Sep-29 21:31N 49°19' W 123°06'0 0.0
2016-Sep-29 20:31N 49°19' W 123°06'0 0.0
2016-Sep-29 19:31N 49°19' W 123°06'0 0.0
2016-Sep-29 16:31N 49°19' W 123°06'0 0.0
2016-Sep-29 15:31N 49°19' W 123°06'0 0.0
2016-Sep-29 14:31N 49°19' W 123°06'0 0.0
2016-Sep-29 13:31N 49°19' W 123°06'0 0.0
2016-Sep-29 08:31N 49°19' W 123°06'0 0.0
2016-Sep-29 07:31N 49°19' W 123°06'0 0.0
2016-Sep-29 00:31N 49°19' W 123°06'0 0.0
2016-Sep-28 21:31N 49°19' W 123°06'0 0.0
2016-Sep-28 19:31N 49°19' W 123°06'0 0.0
2016-Sep-28 16:31N 49°19' W 123°06'0 0.0
2016-Sep-28 15:31N 49°19' W 123°06'0 0.0
2016-Sep-28 12:31N 49°19' W 123°06'0 0.0
2016-Sep-28 08:31N 49°19' W 123°06'0 0.0
2016-Sep-28 03:31N 49°19' W 123°06'0 0.0
2016-Sep-28 02:31N 49°19' W 123°06'0 0.0
2016-Sep-28 01:31N 49°19' W 123°06'0 0.0
2016-Sep-27 23:31N 49°19' W 123°06'0 0.0
2016-Sep-27 19:31N 49°19' W 123°06'0 0.0
2016-Sep-27 14:31N 49°18' W 123°07'0 0.0
2016-Sep-27 13:31N 49°18' W 123°07'0 0.0
2016-Sep-27 10:31N 49°18' W 123°07'0 0.0
2016-Sep-27 00:31N 49°18' W 123°06'0 0.0
2016-Sep-26 20:31N 49°18' W 123°06'0 0.0
2016-Sep-26 19:31N 49°18' W 123°06'0 0.0
2016-Sep-26 15:31N 49°18' W 123°06'0 0.0
2016-Sep-26 13:31N 49°18' W 123°06'0 0.0
2016-Sep-26 11:31N 49°18' W 123°06'0 0.0
2016-Sep-26 08:31N 49°19' W 123°06'0 0.0
2016-Sep-26 02:31N 49°18' W 123°06'0 0.0
2016-Sep-26 01:31N 49°18' W 123°06'0 0.0
2016-Sep-26 00:31N 49°18' W 123°06'0 0.0
2016-Sep-25 21:31N 49°18' W 123°06'0 0.0
2016-Sep-25 17:31N 49°18' W 123°06'0 0.0
2016-Sep-25 16:31N 49°18' W 123°06'0 0.0
2016-Sep-25 15:31N 49°18' W 123°06'0 0.4
2016-Sep-25 14:33N 49°18' W 123°07'18 8.8
2016-Sep-25 12:34N 49°02' W 123°18'1313.4
2016-Sep-25 11:33N 48°53' W 123°04'9 9.1
2016-Sep-25 10:33N 48°44' W 123°07'10 9.7
2016-Sep-25 09:33N 48°35' W 123°13'19 9.3
2016-Sep-25 07:33N 48°18' W 123°25'3110.5
2016-Sep-25 04:33N 48°19' W 124°12'5112.6
2016-Sep-25 00:33N 48°29' W 125°27'2613.0
2016-Sep-24 22:33N 48°30' W 126°06'1312.6
2016-Sep-24 21:33N 48°31' W 126°25'2613.1
2016-Sep-24 19:33N 48°32' W 127°04'  
Track history (hours):
 
Tides and Currents Weather Stations Pressure Air Temp Water Temp Dewpoint Dewpoint Depression Visibility Wind Speed Wind Dir Waves Ship Positions

Gdf Suez North Sea

Last reported at 2016-Sep-30 14:31 UTC. Time now 2016-Sep-30 15:17 UTC.
Position N 49°19' W 123°06'.

Length 190 m; draft 6.9 m.

Type: Cargo ship. MMSI: 373341000.

Date/timePositionNaut miles runAvg speedWind from/ knotsBaromVisibWave heightAir tempDewpointWater temp
2016-Sep-30 14:31N 49°19' W 123°06'0 0.0
2016-Sep-30 13:31N 49°19' W 123°06'0 0.0
2016-Sep-30 10:31N 49°19' W 123°06'0 0.0
2016-Sep-30 08:31N 49°19' W 123°06'0 0.0
2016-Sep-30 06:31N 49°19' W 123°06'0 0.0
2016-Sep-30 03:31N 49°19' W 123°06'0 0.0
2016-Sep-30 02:31N 49°19' W 123°06'0 0.0
2016-Sep-29 23:31N 49°19' W 123°06'0 0.0
2016-Sep-29 21:31N 49°19' W 123°06'0 0.0
2016-Sep-29 20:31N 49°19' W 123°06'0 0.0
2016-Sep-29 19:31N 49°19' W 123°06'0 0.0
2016-Sep-29 16:31N 49°19' W 123°06'0 0.0
2016-Sep-29 15:31N 49°19' W 123°06'0 0.0
2016-Sep-29 14:31N 49°19' W 123°06'0 0.0
2016-Sep-29 13:31N 49°19' W 123°06'0 0.0
2016-Sep-29 08:31N 49°19' W 123°06'0 0.0
2016-Sep-29 07:31N 49°19' W 123°06'0 0.0
2016-Sep-29 00:31N 49°19' W 123°06'0 0.0
2016-Sep-28 21:31N 49°19' W 123°06'0 0.0
2016-Sep-28 19:31N 49°19' W 123°06'0 0.0
2016-Sep-28 16:31N 49°19' W 123°06'0 0.0
2016-Sep-28 15:31N 49°19' W 123°06'0 0.0
2016-Sep-28 12:31N 49°19' W 123°06'0 0.0
2016-Sep-28 08:31N 49°19' W 123°06'0 0.0
2016-Sep-28 03:31N 49°19' W 123°06'0 0.0
2016-Sep-28 02:31N 49°19' W 123°06'0 0.0
2016-Sep-28 01:31N 49°19' W 123°06'0 0.0
2016-Sep-27 23:31N 49°19' W 123°06'0 0.0
2016-Sep-27 19:31N 49°19' W 123°06'0 0.0
2016-Sep-27 14:31N 49°18' W 123°07'0 0.0
2016-Sep-27 13:31N 49°18' W 123°07'0 0.0
2016-Sep-27 10:31N 49°18' W 123°07'0 0.0
2016-Sep-27 00:31N 49°18' W 123°06'0 0.0
2016-Sep-26 20:31N 49°18' W 123°06'0 0.0
2016-Sep-26 19:31N 49°18' W 123°06'0 0.0
2016-Sep-26 15:31N 49°18' W 123°06'0 0.0
2016-Sep-26 13:31N 49°18' W 123°06'0 0.0
2016-Sep-26 11:31N 49°18' W 123°06'0 0.0
2016-Sep-26 08:31N 49°19' W 123°06'0 0.0
2016-Sep-26 02:31N 49°18' W 123°06'0 0.0
2016-Sep-26 01:31N 49°18' W 123°06'0 0.0
2016-Sep-26 00:31N 49°18' W 123°06'0 0.0
2016-Sep-25 21:31N 49°18' W 123°06'0 0.0
2016-Sep-25 17:31N 49°18' W 123°06'0 0.0
2016-Sep-25 16:31N 49°18' W 123°06'0 0.0
2016-Sep-25 15:31N 49°18' W 123°06'0 0.4
2016-Sep-25 14:33N 49°18' W 123°07'18 8.8
2016-Sep-25 12:34N 49°02' W 123°18'1313.4
2016-Sep-25 11:33N 48°53' W 123°04'9 9.1
2016-Sep-25 10:33N 48°44' W 123°07'10 9.7
2016-Sep-25 09:33N 48°35' W 123°13'19 9.3
2016-Sep-25 07:33N 48°18' W 123°25'3110.5
2016-Sep-25 04:33N 48°19' W 124°12'5112.6
2016-Sep-25 00:33N 48°29' W 125°27'2613.0
2016-Sep-24 22:33N 48°30' W 126°06'1312.6
2016-Sep-24 21:33N 48°31' W 126°25'2613.1
2016-Sep-24 19:33N 48°32' W 127°04'  

Dump ship's entire track history